Time;durP1;ratioP1;P1;durP2;ratioP2;P2;SDS_P1;SDS_P2;PMS_P1;PMS_P2;Temp;Humidity;BMP_temperature;BMP_pressure;BME280_temperature;BME280_humidity;BME280_pressure;Samples;Min_cycle;Max_cycle;Signal;HPM_P1;HPM_P2
2022/03/21 00:01:24;;;;;;;;;;;0.50;58.30;;;;;;5063517;28;19940;-80
2022/03/21 00:03:49;;;;;;;;;;;0.50;58.40;;;;;;5063302;28;19966;-80
2022/03/21 00:06:15;;;;;;;;;;;0.50;58.90;;;;;;5061507;28;19916;-80
2022/03/21 00:08:43;;;;;;;;;;;0.50;58.60;;;;;;5061665;28;20120;-81
2022/03/21 00:11:09;;;;;;;;;;;0.40;58.80;;;;;;5079134;28;19944;-80
2022/03/21 00:13:35;;;;;;;;;;;0.80;59.20;;;;;;5079716;28;20443;-80
2022/03/21 00:16:01;;;;;;;;;;;0.30;59.20;;;;;;5072058;28;19915;-81
2022/03/21 00:18:27;;;;;;;;;;;0.30;60.00;;;;;;5072618;28;19909;-81
2022/03/21 00:20:53;;;;;;;;;;;0.70;59.90;;;;;;5063925;28;20078;-79
2022/03/21 00:23:19;;;;;;;;;;;0.20;59.90;;;;;;5064212;28;19930;-80
2022/03/21 00:25:45;;;;;;;;;;;0.20;60.50;;;;;;5062925;28;20007;-80
2022/03/21 00:28:11;;;;;;;;;;;1.10;60.80;;;;;;5063158;28;20334;-80
2022/03/21 00:30:38;;;;;;;;;;;0.60;60.20;;;;;;5061380;28;19909;-80
2022/03/21 00:33:04;;;;;;;;;;;0.20;60.30;;;;;;5062720;28;19908;-79
2022/03/21 00:35:30;;;;;;;;;;;0.30;61.60;;;;;;5062458;28;20188;-79
2022/03/21 00:37:56;;;;;;;;;;;0.10;62.00;;;;;;5060367;28;19939;-80
2022/03/21 00:40:22;;;;;;;;;;;1.20;62.20;;;;;;5060929;28;19928;-79
2022/03/21 00:42:49;;;;;;;;;;;0.00;62.10;;;;;;5059230;28;19908;-80
2022/03/21 00:45:16;;;;;;;;;;;0.00;62.10;;;;;;5059267;28;20425;-80
2022/03/21 00:47:42;;;;;;;;;;;0.00;62.80;;;;;;5059266;28;20468;-80
2022/03/21 00:50:09;;;;;;;;;;;-0.10;63.20;;;;;;5059660;28;20019;-80
2022/03/21 00:52:40;;;;;;;;;;;-0.10;63.00;;;;;;5060682;28;19922;-80
2022/03/21 00:55:06;;;;;;;;;;;-0.20;63.50;;;;;;5060251;28;19908;-77
2022/03/21 00:57:32;;;;;;;;;;;-0.30;63.40;;;;;;5063223;28;19915;-80
2022/03/21 00:59:58;;;;;;;;;;;1.10;64.30;;;;;;5062832;28;19931;-80
2022/03/21 01:02:23;;;;;;;;;;;-0.30;63.80;;;;;;5062313;28;20378;-80
2022/03/21 01:04:49;;;;;;;;;;;-0.20;64.30;;;;;;5063202;28;20298;-79
2022/03/21 01:07:14;;;;;;;;;;;0.70;64.60;;;;;;5063039;28;20276;-80
2022/03/21 01:09:40;;;;;;;;;;;0.20;64.70;;;;;;5063684;28;20011;-77
2022/03/21 01:12:07;;;;;;;;;;;-0.30;64.50;;;;;;5061437;28;19908;-80
2022/03/21 01:14:33;;;;;;;;;;;-0.30;64.70;;;;;;5066701;28;19962;-80
2022/03/21 01:16:58;;;;;;;;;;;-0.40;64.50;;;;;;5068710;28;19908;-80
2022/03/21 01:19:27;;;;;;;;;;;-0.30;64.70;;;;;;5064410;28;20354;-80
2022/03/21 01:21:53;;;;;;;;;;;-0.30;64.50;;;;;;5062359;28;19920;-80
2022/03/21 01:24:18;;;;;;;;;;;-0.40;64.60;;;;;;5060923;28;20105;-79
2022/03/21 01:26:44;;;;;;;;;;;-0.40;64.70;;;;;;5062994;28;20330;-80
2022/03/21 01:29:10;;;;;;;;;;;-0.40;65.40;;;;;;5061945;28;19913;-80
2022/03/21 01:31:35;;;;;;;;;;;-0.50;65.40;;;;;;5060272;28;20188;-80
2022/03/21 01:34:01;;;;;;;;;;;-0.60;65.60;;;;;;5060887;28;20436;-80
2022/03/21 01:36:26;;;;;;;;;;;-0.50;66.40;;;;;;5062690;28;19912;-80
2022/03/21 01:38:52;;;;;;;;;;;0.50;66.90;;;;;;5061726;28;19908;-80
2022/03/21 01:41:18;;;;;;;;;;;1.00;67.50;;;;;;5062009;28;19925;-80
2022/03/21 01:43:56;;;;;;;;;;;-0.60;66.70;;;;;;5061957;28;20227;-80
2022/03/21 01:46:22;;;;;;;;;;;-0.60;67.00;;;;;;5066014;28;19909;-80
2022/03/21 01:48:48;;;;;;;;;;;-0.60;67.00;;;;;;5066018;28;19954;-80
2022/03/21 01:51:14;;;;;;;;;;;-0.70;67.40;;;;;;5068116;28;20292;-80
2022/03/21 01:56:24;;;;;;;;;;;-0.60;67.30;;;;;;5062847;28;19919;-79
2022/03/21 01:58:50;;;;;;;;;;;0.70;67.70;;;;;;5062531;28;19956;-79
2022/03/21 02:01:15;;;;;;;;;;;-0.20;66.80;;;;;;5059855;28;19967;-79
2022/03/21 02:03:41;;;;;;;;;;;-0.70;67.20;;;;;;5060904;28;20082;-80
2022/03/21 02:06:07;;;;;;;;;;;-0.70;67.40;;;;;;5061312;28;19958;-80
2022/03/21 02:08:32;;;;;;;;;;;-0.80;67.50;;;;;;5060149;28;20013;-80
2022/03/21 02:10:58;;;;;;;;;;;-0.70;67.90;;;;;;5059555;28;20399;-80
2022/03/21 02:13:23;;;;;;;;;;;0.50;68.40;;;;;;5059117;28;20280;-80
2022/03/21 02:15:49;;;;;;;;;;;-0.80;68.10;;;;;;5059061;28;19915;-79
2022/03/21 02:18:16;;;;;;;;;;;-0.80;68.80;;;;;;5061133;28;19958;-79
2022/03/21 02:20:42;;;;;;;;;;;-0.80;68.70;;;;;;5060053;28;19923;-80
2022/03/21 02:23:24;;;;;;;;;;;-0.80;69.00;;;;;;5059985;28;19909;-79
2022/03/21 02:25:50;;;;;;;;;;;-0.90;69.40;;;;;;5061427;28;19908;-79
2022/03/21 02:28:16;;;;;;;;;;;-0.90;69.30;;;;;;5061228;28;19931;-80
2022/03/21 02:30:46;;;;;;;;;;;-0.80;69.70;;;;;;5061606;28;20459;-80
2022/03/21 02:33:12;;;;;;;;;;;-0.90;69.60;;;;;;5059154;28;19916;-80
2022/03/21 02:35:40;;;;;;;;;;;-0.90;69.70;;;;;;5059718;28;19909;-80
2022/03/21 02:38:07;;;;;;;;;;;-0.90;70.00;;;;;;5059857;28;20420;-80
2022/03/21 02:40:33;;;;;;;;;;;-0.90;70.60;;;;;;5058538;28;19925;-80
2022/03/21 02:42:58;;;;;;;;;;;-1.00;70.60;;;;;;5059360;28;19916;-79
2022/03/21 02:45:25;;;;;;;;;;;-1.00;71.30;;;;;;5060632;28;19982;-80
2022/03/21 02:47:50;;;;;;;;;;;-1.00;71.50;;;;;;5061254;28;20074;-79
2022/03/21 02:50:17;;;;;;;;;;;-1.10;71.20;;;;;;5061038;28;20158;-80
2022/03/21 02:52:45;;;;;;;;;;;-1.10;71.60;;;;;;5059903;28;19966;-79
2022/03/21 02:55:10;;;;;;;;;;;-1.10;72.00;;;;;;5059756;28;19916;-79
2022/03/21 02:57:36;;;;;;;;;;;-1.10;72.50;;;;;;5061929;28;19913;-80
2022/03/21 03:00:02;;;;;;;;;;;-1.10;72.90;;;;;;5062301;28;20007;-79
2022/03/21 03:02:28;;;;;;;;;;;-1.20;72.80;;;;;;5061445;28;19916;-80
2022/03/21 03:04:53;;;;;;;;;;;-1.30;73.50;;;;;;5061515;28;19978;-80
2022/03/21 03:07:19;;;;;;;;;;;-0.30;74.80;;;;;;5064251;28;19937;-80
2022/03/21 03:09:44;;;;;;;;;;;-0.70;74.70;;;;;;5064637;28;20406;-79
2022/03/21 03:12:10;;;;;;;;;;;-1.30;74.10;;;;;;5066915;28;19908;-77
2022/03/21 03:14:37;;;;;;;;;;;-1.30;74.40;;;;;;5065947;28;20261;-79
2022/03/21 03:17:03;;;;;;;;;;;-1.20;75.20;;;;;;5074418;28;19916;-76
2022/03/21 03:19:28;;;;;;;;;;;-1.20;74.10;;;;;;5076932;28;19920;-80
2022/03/21 03:21:55;;;;;;;;;;;-1.30;74.20;;;;;;5078233;28;20109;-77
2022/03/21 03:24:23;;;;;;;;;;;-1.30;74.40;;;;;;5074230;28;20433;-80
2022/03/21 03:26:48;;;;;;;;;;;-0.30;75.80;;;;;;5068207;28;20210;-77
2022/03/21 03:29:15;;;;;;;;;;;0.20;76.70;;;;;;5067521;28;20364;-79
2022/03/21 03:31:40;;;;;;;;;;;-1.30;75.40;;;;;;5066804;28;19919;-79
2022/03/21 03:34:06;;;;;;;;;;;-1.30;75.90;;;;;;5064846;28;19930;-77
2022/03/21 03:36:32;;;;;;;;;;;-0.70;76.30;;;;;;5063958;28;20446;-78
2022/03/21 03:38:58;;;;;;;;;;;-1.30;75.90;;;;;;5061597;28;19954;-79
2022/03/21 03:41:24;;;;;;;;;;;-0.30;76.50;;;;;;5063486;28;19913;-80
2022/03/21 03:43:49;;;;;;;;;;;-1.40;76.00;;;;;;5064478;28;19920;-80
2022/03/21 03:46:18;;;;;;;;;;;-1.40;76.40;;;;;;5063038;28;20026;-79
2022/03/21 03:48:44;;;;;;;;;;;-1.50;76.70;;;;;;5063196;28;20387;-79
2022/03/21 03:51:10;;;;;;;;;;;-1.50;76.90;;;;;;5065545;28;19916;-80
2022/03/21 03:53:36;;;;;;;;;;;-1.60;77.00;;;;;;5063946;28;19915;-79
2022/03/21 03:56:02;;;;;;;;;;;-1.70;77.00;;;;;;5063555;28;19939;-80
2022/03/21 03:58:28;;;;;;;;;;;-1.30;77.60;;;;;;5066032;28;20311;-80
2022/03/21 04:00:54;;;;;;;;;;;-1.60;78.00;;;;;;5065991;28;19917;-80
2022/03/21 04:06:04;;;;;;;;;;;-1.60;78.20;;;;;;5065297;28;20402;-80
2022/03/21 04:08:30;;;;;;;;;;;-1.60;78.30;;;;;;5068487;28;20137;-80
2022/03/21 04:10:55;;;;;;;;;;;-1.60;77.90;;;;;;5098252;28;19924;-80
2022/03/21 04:13:21;;;;;;;;;;;-1.30;78.00;;;;;;5092690;28;20231;-80
2022/03/21 04:15:46;;;;;;;;;;;0.50;79.00;;;;;;5092755;28;19908;-80
2022/03/21 04:18:13;;;;;;;;;;;-1.60;77.70;;;;;;5111271;28;19908;-80
2022/03/21 04:20:39;;;;;;;;;;;-1.60;78.10;;;;;;5092603;28;20092;-80
2022/03/21 04:23:05;;;;;;;;;;;-1.50;77.80;;;;;;5091581;28;20234;-80
2022/03/21 04:25:31;;;;;;;;;;;-1.50;78.00;;;;;;5110165;28;19987;-80
2022/03/21 04:27:56;;;;;;;;;;;-1.50;78.30;;;;;;5110398;28;19951;-80
2022/03/21 04:30:23;;;;;;;;;;;-1.50;78.60;;;;;;5091378;28;19923;-80
2022/03/21 04:32:49;;;;;;;;;;;-1.50;78.50;;;;;;5086588;28;20482;-80
2022/03/21 04:35:15;;;;;;;;;;;-1.50;78.60;;;;;;5104677;28;19947;-80
2022/03/21 04:37:41;;;;;;;;;;;-0.60;79.10;;;;;;5103511;28;19915;-80
2022/03/21 04:40:07;;;;;;;;;;;-1.50;78.60;;;;;;5085649;28;20452;-80
2022/03/21 04:42:33;;;;;;;;;;;-1.50;78.40;;;;;;5104818;28;19915;-78
2022/03/21 04:44:59;;;;;;;;;;;-1.50;79.20;;;;;;5104155;28;19914;-79
2022/03/21 04:47:25;;;;;;;;;;;-1.60;78.90;;;;;;5103951;28;20014;-80
2022/03/21 04:49:50;;;;;;;;;;;-1.60;79.30;;;;;;5104056;28;19912;-80
2022/03/21 04:52:16;;;;;;;;;;;-2.50;79.00;;;;;;5103530;28;20115;-79
2022/03/21 04:54:42;;;;;;;;;;;-1.40;79.80;;;;;;5103551;28;19908;-80
2022/03/21 04:57:08;;;;;;;;;;;-1.70;79.80;;;;;;5103256;28;19915;-80
2022/03/21 04:59:34;;;;;;;;;;;0.10;81.00;;;;;;5085977;28;19985;-77
2022/03/21 05:02:00;;;;;;;;;;;-1.80;80.40;;;;;;5104371;28;19912;-80
2022/03/21 05:04:26;;;;;;;;;;;-1.90;80.90;;;;;;5087444;28;19915;-80
2022/03/21 05:06:53;;;;;;;;;;;-1.90;81.60;;;;;;5110897;28;19915;-79
2022/03/21 05:09:19;;;;;;;;;;;-1.90;81.30;;;;;;5092807;28;19969;-80
2022/03/21 05:11:45;;;;;;;;;;;-1.90;80.80;;;;;;5093406;28;19912;-81
2022/03/21 05:14:10;;;;;;;;;;;-1.90;80.60;;;;;;5105742;28;19911;-80
2022/03/21 05:16:36;;;;;;;;;;;-1.80;80.70;;;;;;5103612;28;20246;-79
2022/03/21 05:19:02;;;;;;;;;;;-1.80;80.40;;;;;;5103036;28;19922;-80
2022/03/21 05:21:28;;;;;;;;;;;-1.80;80.50;;;;;;5103483;28;20087;-80
2022/03/21 05:32:06;;;;;;;;;;;-1.70;79.90;;;;;;5103974;28;20310;-80
2022/03/21 05:37:17;;;;;;;;;;;-1.70;80.60;;;;;;5105934;28;19983;-80
2022/03/21 05:42:26;;;;;;;;;;;-1.60;80.50;;;;;;5101914;28;20135;-80
2022/03/21 05:44:52;;;;;;;;;;;-1.60;80.30;;;;;;5100981;28;20260;-79
2022/03/21 05:47:18;;;;;;;;;;;-1.50;79.10;;;;;;5082031;28;19908;-80
2022/03/21 05:49:44;;;;;;;;;;;-1.50;78.80;;;;;;5101022;28;19912;-79
2022/03/21 05:52:09;;;;;;;;;;;0.40;79.90;;;;;;5100958;28;19946;-79
2022/03/21 05:54:36;;;;;;;;;;;-1.30;78.50;;;;;;5082476;28;19916;-79
2022/03/21 05:57:02;;;;;;;;;;;-1.30;78.50;;;;;;5100672;28;19914;-80
2022/03/21 06:02:11;;;;;;;;;;;-1.20;77.60;;;;;;5100693;28;19918;-80
2022/03/21 06:04:37;;;;;;;;;;;-1.10;77.40;;;;;;5101229;28;20131;-80
2022/03/21 06:07:03;;;;;;;;;;;-1.00;76.80;;;;;;5100682;28;20111;-79
2022/03/21 06:09:28;;;;;;;;;;;-1.20;76.50;;;;;;5100438;28;20165;-79
2022/03/21 06:11:55;;;;;;;;;;;-0.70;76.10;;;;;;5100815;28;19912;-80
2022/03/21 06:14:21;;;;;;;;;;;-0.50;77.50;;;;;;5081564;28;19912;-80
2022/03/21 06:16:47;;;;;;;;;;;0.00;76.40;;;;;;5100036;28;19972;-79
2022/03/21 06:19:13;;;;;;;;;;;-0.50;75.00;;;;;;5099901;28;19908;-81
2022/03/21 06:21:39;;;;;;;;;;;-0.40;74.50;;;;;;5100213;28;19908;-80
2022/03/21 06:24:05;;;;;;;;;;;-0.30;74.20;;;;;;5100004;28;19919;-80
2022/03/21 06:26:30;;;;;;;;;;;-0.10;73.80;;;;;;5099953;28;20188;-80
2022/03/21 06:28:56;;;;;;;;;;;-0.10;73.20;;;;;;5103357;28;20589;-80
2022/03/21 06:31:21;;;;;;;;;;;0.00;72.80;;;;;;5107638;28;20378;-80
2022/03/21 06:33:47;;;;;;;;;;;0.10;72.20;;;;;;5106176;28;19953;-78
2022/03/21 06:36:14;;;;;;;;;;;0.20;70.70;;;;;;5107382;28;19919;-80
2022/03/21 06:38:39;;;;;;;;;;;0.30;70.20;;;;;;5089738;28;20386;-80
2022/03/21 06:41:06;;;;;;;;;;;0.50;70.40;;;;;;5103239;28;19980;-80
2022/03/21 06:43:32;;;;;;;;;;;0.60;69.40;;;;;;5087714;28;19998;-80
2022/03/21 06:45:58;;;;;;;;;;;0.70;68.80;;;;;;5087719;28;20019;-80
2022/03/21 06:48:25;;;;;;;;;;;0.80;68.40;;;;;;5104987;28;19908;-77
2022/03/21 06:50:51;;;;;;;;;;;1.00;68.30;;;;;;5103929;28;19947;-80
2022/03/21 06:53:17;;;;;;;;;;;1.00;67.20;;;;;;5104902;28;19972;-79
2022/03/21 06:55:44;;;;;;;;;;;1.20;67.00;;;;;;5105800;28;19915;-80
2022/03/21 06:58:12;;;;;;;;;;;1.20;66.60;;;;;;5105861;28;19915;-80
2022/03/21 07:00:41;;;;;;;;;;;1.30;67.10;;;;;;5088405;28;19920;-80
2022/03/21 07:03:07;;;;;;;;;;;1.40;66.70;;;;;;5089523;28;19969;-80
2022/03/21 07:05:37;;;;;;;;;;;1.50;66.00;;;;;;5108309;28;19915;-79
2022/03/21 07:08:03;;;;;;;;;;;1.70;65.40;;;;;;5089577;28;19907;-80
2022/03/21 07:10:30;;;;;;;;;;;1.80;65.60;;;;;;5088815;28;20447;-80
2022/03/21 07:12:55;;;;;;;;;;;1.80;63.70;;;;;;5088962;28;19912;-80
2022/03/21 07:15:21;;;;;;;;;;;2.10;64.00;;;;;;5087025;28;19908;-80
2022/03/21 07:17:48;;;;;;;;;;;2.10;63.40;;;;;;5088708;28;19994;-80
2022/03/21 07:20:14;;;;;;;;;;;1.70;60.30;;;;;;5107378;28;19912;-79
2022/03/21 07:22:39;;;;;;;;;;;2.20;58.20;;;;;;5089477;28;19969;-80
2022/03/21 07:25:06;;;;;;;;;;;2.30;58.20;;;;;;5106314;28;20397;-79
2022/03/21 07:27:31;;;;;;;;;;;2.50;58.00;;;;;;5088278;28;19985;-79
2022/03/21 07:29:57;;;;;;;;;;;2.60;57.00;;;;;;5088438;28;20366;-80
2022/03/21 07:32:22;;;;;;;;;;;2.70;55.40;;;;;;5091553;28;20097;-78
2022/03/21 07:34:48;;;;;;;;;;;2.70;54.50;;;;;;5110722;28;20100;-80
2022/03/21 07:37:13;;;;;;;;;;;2.80;54.10;;;;;;5114074;28;19908;-79
2022/03/21 07:39:44;;;;;;;;;;;2.90;53.80;;;;;;5111644;28;19920;-79
2022/03/21 07:42:14;;;;;;;;;;;2.90;54.00;;;;;;5113186;28;19920;-79
2022/03/21 07:47:24;;;;;;;;;;;3.20;52.70;;;;;;5116837;28;19953;-79
2022/03/21 07:49:50;;;;;;;;;;;3.30;52.60;;;;;;5115177;28;19911;-80
2022/03/21 07:52:20;;;;;;;;;;;3.30;52.40;;;;;;5112743;28;19915;-79
2022/03/21 07:54:46;;;;;;;;;;;3.50;52.00;;;;;;5095265;28;19912;-79
2022/03/21 07:57:12;;;;;;;;;;;3.60;52.10;;;;;;5112083;28;19914;-80
2022/03/21 07:59:37;;;;;;;;;;;3.80;51.80;;;;;;5109663;28;19916;-79
2022/03/21 08:02:05;;;;;;;;;;;4.00;51.00;;;;;;5091023;28;19913;-80
2022/03/21 08:04:31;;;;;;;;;;;4.10;50.60;;;;;;5091380;28;19908;-79
2022/03/21 08:06:57;;;;;;;;;;;4.30;50.30;;;;;;5109923;28;19915;-79
2022/03/21 08:09:24;;;;;;;;;;;4.30;50.30;;;;;;5111263;28;20318;-79
2022/03/21 08:11:50;;;;;;;;;;;4.40;50.40;;;;;;5093110;28;20184;-79
2022/03/21 08:14:16;;;;;;;;;;;4.30;50.20;;;;;;5098488;28;20022;-80
2022/03/21 08:16:42;;;;;;;;;;;4.40;50.40;;;;;;5099621;28;19954;-81
2022/03/21 08:19:07;;;;;;;;;;;4.60;50.00;;;;;;5098093;28;20477;-79
2022/03/21 08:21:33;;;;;;;;;;;4.70;49.80;;;;;;5096717;28;19914;-80
2022/03/21 08:23:59;;;;;;;;;;;4.80;49.00;;;;;;5118605;28;20233;-80
2022/03/21 08:26:24;;;;;;;;;;;4.90;49.00;;;;;;5119353;28;19907;-80
2022/03/21 08:28:50;;;;;;;;;;;4.70;49.30;;;;;;5110158;28;20173;-80
2022/03/21 08:31:15;;;;;;;;;;;4.90;49.30;;;;;;5107769;28;20037;-80
2022/03/21 08:33:41;;;;;;;;;;;5.10;48.30;;;;;;5087643;28;20003;-79
2022/03/21 08:36:07;;;;;;;;;;;5.20;48.30;;;;;;5085785;28;20191;-79
2022/03/21 08:38:33;;;;;;;;;;;5.30;48.00;;;;;;5104955;28;19999;-79
2022/03/21 08:40:59;;;;;;;;;;;6.10;48.20;;;;;;5103307;28;20493;-79
2022/03/21 08:43:24;;;;;;;;;;;5.60;47.40;;;;;;5104458;28;20287;-79
2022/03/21 08:45:51;;;;;;;;;;;5.50;47.30;;;;;;5086034;28;19908;-79
2022/03/21 08:48:16;;;;;;;;;;;5.80;47.90;;;;;;5086317;28;20344;-79
2022/03/21 08:50:42;;;;;;;;;;;6.00;46.40;;;;;;5104760;28;19916;-80
2022/03/21 08:53:08;;;;;;;;;;;6.20;46.60;;;;;;5104824;28;19915;-79
2022/03/21 08:55:34;;;;;;;;;;;6.30;46.30;;;;;;5104813;28;19911;-80
2022/03/21 08:57:59;;;;;;;;;;;6.40;46.10;;;;;;5106099;28;19908;-79
2022/03/21 09:00:25;;;;;;;;;;;6.50;45.60;;;;;;5105124;28;19923;-80
2022/03/21 09:02:54;;;;;;;;;;;6.70;45.40;;;;;;5086944;28;19907;-80
2022/03/21 09:05:20;;;;;;;;;;;6.60;45.20;;;;;;5105352;28;19908;-79
2022/03/21 09:07:46;;;;;;;;;;;6.70;44.80;;;;;;5105665;28;19979;-79
2022/03/21 09:10:14;;;;;;;;;;;6.80;45.00;;;;;;5087955;28;20547;-80
2022/03/21 09:12:39;;;;;;;;;;;7.00;44.80;;;;;;5087849;28;20366;-80
2022/03/21 09:15:05;;;;;;;;;;;7.00;44.00;;;;;;5107839;28;19912;-79
2022/03/21 09:17:31;;;;;;;;;;;7.10;44.30;;;;;;5107926;28;20386;-80
2022/03/21 09:19:56;;;;;;;;;;;7.50;43.10;;;;;;5105528;28;19916;-79
2022/03/21 09:22:22;;;;;;;;;;;7.60;42.20;;;;;;5106280;28;20196;-80
2022/03/21 09:24:47;;;;;;;;;;;7.50;43.00;;;;;;5109312;28;19934;-79
2022/03/21 09:27:13;;;;;;;;;;;7.80;42.30;;;;;;5106845;28;20076;-80
2022/03/21 09:29:39;;;;;;;;;;;8.00;41.40;;;;;;5110366;28;19911;-80
2022/03/21 09:32:04;;;;;;;;;;;8.10;40.80;;;;;;5090487;28;19939;-80
2022/03/21 09:34:32;;;;;;;;;;;8.20;40.30;;;;;;5110116;28;20402;-80
2022/03/21 09:36:58;;;;;;;;;;;8.20;40.00;;;;;;5092538;28;19908;-80
2022/03/21 09:39:24;;;;;;;;;;;8.40;40.10;;;;;;5111670;28;19926;-80
2022/03/21 09:41:50;;;;;;;;;;;8.70;39.40;;;;;;5115876;28;19908;-80
2022/03/21 09:44:15;;;;;;;;;;;8.50;38.70;;;;;;5117368;28;20002;-80
2022/03/21 09:46:42;;;;;;;;;;;8.30;38.40;;;;;;5097618;28;20112;-80
2022/03/21 09:49:10;;;;;;;;;;;8.40;38.20;;;;;;5094963;28;19934;-80
2022/03/21 09:51:36;;;;;;;;;;;8.70;38.40;;;;;;5090302;28;20025;-80
2022/03/21 09:54:02;;;;;;;;;;;8.80;37.20;;;;;;5090550;28;19951;-80
2022/03/21 09:56:28;;;;;;;;;;;8.90;37.70;;;;;;5108632;28;19914;-80
2022/03/21 09:59:01;;;;;;;;;;;9.20;37.50;;;;;;5090173;28;19916;-80
2022/03/21 10:01:31;;;;;;;;;;;9.30;36.30;;;;;;5113321;28;19972;-80
2022/03/21 10:03:59;;;;;;;;;;;9.50;36.60;;;;;;5090682;28;20366;-80
2022/03/21 10:06:28;;;;;;;;;;;9.80;37.60;;;;;;5086716;28;20489;-80
2022/03/21 10:09:22;;;;;;;;;;;9.80;35.80;;;;;;5104312;28;19943;-80
2022/03/21 10:11:49;;;;;;;;;;;10.10;35.70;;;;;;5019601;28;20076;-80
2022/03/21 10:14:25;;;;;;;;;;;10.30;34.50;;;;;;5018843;28;19909;-79
2022/03/21 10:16:55;;;;;;;;;;;10.50;33.00;;;;;;5023963;28;19909;-80
2022/03/21 10:19:22;;;;;;;;;;;10.70;32.90;;;;;;5024392;28;19910;-80
2022/03/21 10:22:08;;;;;;;;;;;11.00;33.20;;;;;;5008211;28;19913;-80
2022/03/21 10:24:34;;;;;;;;;;;11.30;32.60;;;;;;5024774;28;19975;-80
2022/03/21 10:27:00;;;;;;;;;;;11.60;32.70;;;;;;5024793;28;20124;-80
2022/03/21 10:29:26;;;;;;;;;;;11.80;32.20;;;;;;5011511;28;20051;-80
2022/03/21 10:31:52;;;;;;;;;;;11.90;31.40;;;;;;5026863;28;20366;-80
2022/03/21 10:34:19;;;;;;;;;;;12.00;31.50;;;;;;5025762;28;19924;-80
2022/03/21 10:36:57;;;;;;;;;;;12.00;30.20;;;;;;5025942;28;19909;-80
2022/03/21 10:39:24;;;;;;;;;;;12.10;31.70;;;;;;5008031;28;19909;-79
2022/03/21 10:41:53;;;;;;;;;;;12.30;30.60;;;;;;5024091;28;20054;-80
2022/03/21 10:44:20;;;;;;;;;;;12.30;30.30;;;;;;5006729;28;20027;-80
2022/03/21 10:46:50;;;;;;;;;;;12.30;30.20;;;;;;5006439;28;20216;-80
2022/03/21 10:49:25;;;;;;;;;;;12.40;30.50;;;;;;5099076;28;20192;-80
2022/03/21 10:51:54;;;;;;;;;;;12.70;29.60;;;;;;5106179;28;19908;-80
2022/03/21 10:54:35;;;;;;;;;;;12.70;29.40;;;;;;5086486;28;20265;-80
2022/03/21 10:57:03;;;;;;;;;;;12.90;30.00;;;;;;5105467;28;20409;-80
2022/03/21 10:59:28;;;;;;;;;;;13.00;29.80;;;;;;5087799;28;20116;-80
2022/03/21 11:02:10;;;;;;;;;;;13.10;29.70;;;;;;5087487;28;19912;-80
2022/03/21 11:04:38;;;;;;;;;;;13.30;28.90;;;;;;5088166;28;20439;-80
2022/03/21 11:07:06;;;;;;;;;;;13.30;28.70;;;;;;5107460;28;19960;-81
2022/03/21 11:09:34;;;;;;;;;;;13.30;28.80;;;;;;5108557;28;19920;-80
2022/03/21 11:12:02;;;;;;;;;;;13.40;29.00;;;;;;5091486;28;20522;-80
2022/03/21 11:14:28;;;;;;;;;;;13.30;29.00;;;;;;5092513;28;20519;-80
2022/03/21 11:16:55;;;;;;;;;;;13.20;28.60;;;;;;5111047;28;19999;-80
2022/03/21 11:19:20;;;;;;;;;;;13.20;28.40;;;;;;5089198;28;19914;-80
2022/03/21 11:21:47;;;;;;;;;;;13.10;28.90;;;;;;5091299;28;20014;-80
2022/03/21 11:24:14;;;;;;;;;;;13.20;28.30;;;;;;5110794;28;19915;-80
2022/03/21 11:26:51;;;;;;;;;;;13.30;28.30;;;;;;5109618;28;19934;-80
2022/03/21 11:29:29;;;;;;;;;;;14.30;29.90;;;;;;5087630;28;20321;-80
2022/03/21 11:32:08;;;;;;;;;;;13.70;29.20;;;;;;5084867;28;19954;-80
2022/03/21 11:34:34;;;;;;;;;;;15.80;29.70;;;;;;5102710;28;19918;-81
2022/03/21 11:36:59;;;;;;;;;;;14.10;29.00;;;;;;5102626;28;19995;-80
2022/03/21 11:39:25;;;;;;;;;;;14.10;28.60;;;;;;5102222;28;20192;-81
2022/03/21 11:41:55;;;;;;;;;;;14.30;27.50;;;;;;5102185;28;19931;-81
2022/03/21 11:44:21;;;;;;;;;;;14.40;28.10;;;;;;5083639;28;19918;-81
2022/03/21 11:46:47;;;;;;;;;;;14.60;29.10;;;;;;5102952;28;20006;-81
2022/03/21 11:49:16;;;;;;;;;;;14.70;28.30;;;;;;5117553;28;19908;-81
2022/03/21 11:51:43;;;;;;;;;;;14.90;28.40;;;;;;5121559;28;19907;-80
2022/03/21 11:54:27;;;;;;;;;;;15.00;28.00;;;;;;5089227;28;20108;-80
2022/03/21 11:56:54;;;;;;;;;;;15.00;27.50;;;;;;5102417;28;19908;-80
2022/03/21 11:59:47;;;;;;;;;;;15.20;27.80;;;;;;5084253;28;20362;-80
2022/03/21 12:02:17;;;;;;;;;;;15.30;27.60;;;;;;5080793;28;20275;-81
2022/03/21 12:04:55;;;;;;;;;;;16.80;27.90;;;;;;5102260;28;19930;-78
2022/03/21 12:07:30;;;;;;;;;;;15.50;27.50;;;;;;5101495;28;19912;-78
2022/03/21 12:09:56;;;;;;;;;;;15.40;26.80;;;;;;5100498;28;19935;-80
2022/03/21 12:12:42;;;;;;;;;;;15.60;27.40;;;;;;5083665;28;19964;-80
2022/03/21 12:15:17;;;;;;;;;;;15.50;27.40;;;;;;5100976;28;19926;-79
2022/03/21 12:17:49;;;;;;;;;;;15.50;26.80;;;;;;5101471;28;19908;-78
2022/03/21 12:20:16;;;;;;;;;;;15.20;27.10;;;;;;5101603;28;19953;-79
2022/03/21 12:22:47;;;;;;;;;;;15.40;28.20;;;;;;5083437;28;19964;-79
2022/03/21 12:25:14;;;;;;;;;;;15.60;27.70;;;;;;5101112;28;19907;-80
2022/03/21 12:27:40;;;;;;;;;;;15.20;26.30;;;;;;5101206;28;19964;-79
2022/03/21 12:30:20;;;;;;;;;;;15.40;28.30;;;;;;5082418;28;19916;-78
2022/03/21 12:32:50;;;;;;;;;;;15.60;28.30;;;;;;5083006;28;20038;-80
2022/03/21 12:35:31;;;;;;;;;;;15.60;27.70;;;;;;5101070;28;20003;-80
2022/03/21 12:38:23;;;;;;;;;;;15.80;28.00;;;;;;5082042;28;20006;-79
2022/03/21 12:40:52;;;;;;;;;;;16.00;27.80;;;;;;5076572;28;20010;-79
2022/03/21 12:43:18;;;;;;;;;;;16.20;28.00;;;;;;5081587;28;19908;-79
2022/03/21 12:45:45;;;;;;;;;;;17.70;28.00;;;;;;5108382;28;19918;-78
2022/03/21 12:48:11;;;;;;;;;;;16.60;27.80;;;;;;5098138;28;19918;-80
2022/03/21 12:50:38;;;;;;;;;;;16.70;27.10;;;;;;5097226;28;19915;-81
2022/03/21 12:53:04;;;;;;;;;;;16.80;27.00;;;;;;5116362;28;20282;-79
2022/03/21 12:55:31;;;;;;;;;;;16.80;27.10;;;;;;5106470;28;19908;-79
2022/03/21 12:57:58;;;;;;;;;;;16.80;27.00;;;;;;5101378;28;20407;-82
2022/03/21 13:00:26;;;;;;;;;;;16.80;26.80;;;;;;5083089;28;19967;-78
2022/03/21 13:02:55;;;;;;;;;;;16.90;26.90;;;;;;5082389;28;19915;-78
2022/03/21 13:10:50;;;;;;;;;;;16.40;26.70;;;;;;5099870;28;19946;-78
2022/03/21 13:13:16;;;;;;;;;;;16.40;27.60;;;;;;5100206;28;19912;-79
2022/03/21 13:15:41;;;;;;;;;;;16.50;27.40;;;;;;5099588;28;19969;-79
2022/03/21 13:18:07;;;;;;;;;;;16.70;27.20;;;;;;5099629;28;20394;-77
2022/03/21 13:20:34;;;;;;;;;;;16.80;26.90;;;;;;5099679;28;20425;-79
2022/03/21 13:23:00;;;;;;;;;;;16.80;26.70;;;;;;5099620;28;19935;-80
2022/03/21 13:25:28;;;;;;;;;;;16.90;26.60;;;;;;5099857;28;19966;-80
2022/03/21 13:28:06;;;;;;;;;;;17.00;26.80;;;;;;5099753;28;19908;-80
2022/03/21 13:30:31;;;;;;;;;;;17.30;27.30;;;;;;5099403;28;20364;-80
2022/03/21 13:32:57;;;;;;;;;;;17.70;27.00;;;;;;5099531;28;19908;-80
2022/03/21 13:35:23;;;;;;;;;;;18.00;26.50;;;;;;5099818;28;19908;-78
2022/03/21 13:38:02;;;;;;;;;;;18.30;26.70;;;;;;5100208;28;20366;-79
2022/03/21 13:40:28;;;;;;;;;;;18.60;26.00;;;;;;5080961;28;20267;-78
2022/03/21 13:42:54;;;;;;;;;;;18.90;25.60;;;;;;5099665;28;19918;-78
2022/03/21 13:45:19;;;;;;;;;;;18.90;25.50;;;;;;5099204;28;19994;-82
2022/03/21 13:47:49;;;;;;;;;;;18.90;26.00;;;;;;5081117;28;20576;-81
2022/03/21 13:50:15;;;;;;;;;;;19.10;25.50;;;;;;5099075;28;19916;-81
2022/03/21 13:52:48;;;;;;;;;;;19.20;26.00;;;;;;5080771;28;19969;-78
2022/03/21 13:55:34;;;;;;;;;;;19.30;25.50;;;;;;5080963;28;20391;-82
2022/03/21 13:58:01;;;;;;;;;;;19.40;25.40;;;;;;5084767;28;19908;-82
2022/03/21 14:00:28;;;;;;;;;;;19.40;25.40;;;;;;5080678;28;20008;-80
2022/03/21 14:02:57;;;;;;;;;;;19.30;25.20;;;;;;5098564;28;20395;-79
2022/03/21 14:05:30;;;;;;;;;;;19.50;25.10;;;;;;5099335;28;19908;-80
2022/03/21 14:08:08;;;;;;;;;;;19.50;25.10;;;;;;5080956;28;20340;-79
2022/03/21 14:10:37;;;;;;;;;;;19.40;25.40;;;;;;5099222;28;20383;-79
2022/03/21 14:13:10;;;;;;;;;;;19.60;25.40;;;;;;5081000;28;19919;-79
2022/03/21 14:15:36;;;;;;;;;;;19.80;25.10;;;;;;5099188;28;20582;-79
2022/03/21 14:18:04;;;;;;;;;;;19.70;24.90;;;;;;5098981;28;20167;-79
2022/03/21 14:20:30;;;;;;;;;;;19.60;24.80;;;;;;5099056;28;20006;-79
2022/03/21 14:22:56;;;;;;;;;;;19.60;25.10;;;;;;5099934;28;20425;-79
2022/03/21 14:28:06;;;;;;;;;;;19.50;24.90;;;;;;5099349;28;20397;-79
2022/03/21 14:30:31;;;;;;;;;;;19.90;24.90;;;;;;5098686;28;19919;-79
2022/03/21 14:32:57;;;;;;;;;;;20.20;25.10;;;;;;5099145;28;20459;-80
2022/03/21 14:35:22;;;;;;;;;;;20.30;24.40;;;;;;5099069;28;19915;-81
2022/03/21 14:37:48;;;;;;;;;;;20.60;24.40;;;;;;5098710;28;19908;-81
2022/03/21 14:40:17;;;;;;;;;;;20.80;24.20;;;;;;5098069;28;19912;-81
2022/03/21 14:42:43;;;;;;;;;;;20.70;23.80;;;;;;5098145;28;20112;-79
2022/03/21 14:45:09;;;;;;;;;;;20.50;24.00;;;;;;5097939;28;19919;-80
2022/03/21 14:47:35;;;;;;;;;;;20.40;23.90;;;;;;5079301;28;19916;-78
2022/03/21 14:50:01;;;;;;;;;;;18.90;23.60;;;;;;5079696;28;19915;-79
2022/03/21 14:52:26;;;;;;;;;;;20.10;24.10;;;;;;5097831;28;19923;-79
2022/03/21 14:54:52;;;;;;;;;;;19.80;24.40;;;;;;5098132;28;19915;-79